sensor_id;sensor_type;location;lat;lon;timestamp;pressure;altitude;pressure_sealevel;temperature;humidity
76011;BME280;64701;43.536;1.478;2022-11-10T00:01:32;100207.72;;;12.65;81.54
76011;BME280;64701;43.536;1.478;2022-11-10T00:03:57;100210.38;;;12.65;81.05
76011;BME280;64701;43.536;1.478;2022-11-10T00:06:22;100217.09;;;12.61;81.14
76011;BME280;64701;43.536;1.478;2022-11-10T00:08:48;100216.19;;;12.54;81.51
76011;BME280;64701;43.536;1.478;2022-11-10T00:11:13;100213.53;;;12.54;81.43
76011;BME280;64701;43.536;1.478;2022-11-10T00:13:38;100211.88;;;12.53;80.95
76011;BME280;64701;43.536;1.478;2022-11-10T00:16:24;100214.38;;;12.55;81.34
76011;BME280;64701;43.536;1.478;2022-11-10T00:19:10;100220.84;;;12.52;81.36
76011;BME280;64701;43.536;1.478;2022-11-10T00:21:36;100224.53;;;12.51;81.91
76011;BME280;64701;43.536;1.478;2022-11-10T00:24:01;100219.22;;;12.51;81.87
76011;BME280;64701;43.536;1.478;2022-11-10T00:26:27;100223.50;;;12.52;81.34
76011;BME280;64701;43.536;1.478;2022-11-10T00:28:53;100220.03;;;12.52;81.48
76011;BME280;64701;43.536;1.478;2022-11-10T00:31:19;100214.38;;;12.55;81.68
76011;BME280;64701;43.536;1.478;2022-11-10T00:33:44;100211.53;;;12.56;81.63
76011;BME280;64701;43.536;1.478;2022-11-10T00:36:10;100217.66;;;12.57;81.44
76011;BME280;64701;43.536;1.478;2022-11-10T00:38:35;100215.81;;;12.57;81.67
76011;BME280;64701;43.536;1.478;2022-11-10T00:41:00;100220.50;;;12.55;81.99
76011;BME280;64701;43.536;1.478;2022-11-10T00:43:26;100223.16;;;12.55;81.74
76011;BME280;64701;43.536;1.478;2022-11-10T00:45:52;100217.66;;;12.57;82.10
76011;BME280;64701;43.536;1.478;2022-11-10T00:48:17;100218.47;;;12.57;82.08
76011;BME280;64701;43.536;1.478;2022-11-10T00:50:42;100217.19;;;12.53;81.84
76011;BME280;64701;43.536;1.478;2022-11-10T00:53:07;100220.69;;;12.54;81.99
76011;BME280;64701;43.536;1.478;2022-11-10T00:55:35;100223.50;;;12.52;81.75
76011;BME280;64701;43.536;1.478;2022-11-10T00:58:00;100222.06;;;12.50;81.12
76011;BME280;64701;43.536;1.478;2022-11-10T01:00:26;100222.44;;;12.47;81.34
76011;BME280;64701;43.536;1.478;2022-11-10T01:02:51;100219.16;;;12.45;81.50
76011;BME280;64701;43.536;1.478;2022-11-10T01:05:17;100223.00;;;12.42;80.92
76011;BME280;64701;43.536;1.478;2022-11-10T01:07:42;100218.69;;;12.41;80.91
76011;BME280;64701;43.536;1.478;2022-11-10T01:10:08;100217.03;;;12.40;81.18
76011;BME280;64701;43.536;1.478;2022-11-10T01:12:33;100222.75;;;12.37;81.03
76011;BME280;64701;43.536;1.478;2022-11-10T01:14:58;100221.47;;;12.33;81.26
76011;BME280;64701;43.536;1.478;2022-11-10T01:17:23;100219.81;;;12.32;81.21
76011;BME280;64701;43.536;1.478;2022-11-10T01:19:49;100230.78;;;12.29;81.40
76011;BME280;64701;43.536;1.478;2022-11-10T01:22:14;100232.19;;;12.25;80.93
76011;BME280;64701;43.536;1.478;2022-11-10T01:24:39;100232.53;;;12.22;80.72
76011;BME280;64701;43.536;1.478;2022-11-10T01:27:05;100242.53;;;12.20;80.65
76011;BME280;64701;43.536;1.478;2022-11-10T01:29:30;100239.63;;;12.15;80.69
76011;BME280;64701;43.536;1.478;2022-11-10T01:31:55;100240.81;;;12.12;80.92
76011;BME280;64701;43.536;1.478;2022-11-10T01:34:21;100241.97;;;12.10;81.37
76011;BME280;64701;43.536;1.478;2022-11-10T01:36:46;100249.50;;;12.06;80.96
76011;BME280;64701;43.536;1.478;2022-11-10T01:39:11;100253.31;;;12.04;81.30
76011;BME280;64701;43.536;1.478;2022-11-10T01:41:36;100259.66;;;12.03;80.77
76011;BME280;64701;43.536;1.478;2022-11-10T01:44:23;100255.72;;;11.99;80.84
76011;BME280;64701;43.536;1.478;2022-11-10T01:46:47;100261.41;;;11.96;81.16
76011;BME280;64701;43.536;1.478;2022-11-10T01:49:14;100255.63;;;11.92;81.39
76011;BME280;64701;43.536;1.478;2022-11-10T01:51:48;100258.47;;;11.91;81.04
76011;BME280;64701;43.536;1.478;2022-11-10T01:54:20;100265.78;;;11.89;80.81
76011;BME280;64701;43.536;1.478;2022-11-10T01:56:47;100260.38;;;11.82;81.22
76011;BME280;64701;43.536;1.478;2022-11-10T01:59:16;100261.56;;;11.79;81.21
76011;BME280;64701;43.536;1.478;2022-11-10T02:01:41;100260.63;;;11.72;81.58
76011;BME280;64701;43.536;1.478;2022-11-10T02:04:09;100266.63;;;11.66;82.14
76011;BME280;64701;43.536;1.478;2022-11-10T02:06:37;100263.34;;;11.64;81.46
76011;BME280;64701;43.536;1.478;2022-11-10T02:09:03;100260.03;;;11.62;81.65
76011;BME280;64701;43.536;1.478;2022-11-10T02:11:28;100261.88;;;11.62;81.04
76011;BME280;64701;43.536;1.478;2022-11-10T02:13:54;100264.72;;;11.60;80.87
76011;BME280;64701;43.536;1.478;2022-11-10T02:16:20;100255.28;;;11.58;81.09
76011;BME280;64701;43.536;1.478;2022-11-10T02:18:46;100259.94;;;11.56;81.38
76011;BME280;64701;43.536;1.478;2022-11-10T02:21:11;100264.59;;;11.54;81.01
76011;BME280;64701;43.536;1.478;2022-11-10T02:24:01;100265.75;;;11.51;81.12
76011;BME280;64701;43.536;1.478;2022-11-10T02:26:26;100259.84;;;11.49;80.76
76011;BME280;64701;43.536;1.478;2022-11-10T02:28:53;100267.13;;;11.47;81.11
76011;BME280;64701;43.536;1.478;2022-11-10T02:31:18;100260.56;;;11.43;81.17
76011;BME280;64701;43.536;1.478;2022-11-10T02:33:43;100256.41;;;11.40;81.09
76011;BME280;64701;43.536;1.478;2022-11-10T02:36:09;100260.44;;;11.36;81.36
76011;BME280;64701;43.536;1.478;2022-11-10T02:38:34;100266.28;;;11.32;81.22
76011;BME280;64701;43.536;1.478;2022-11-10T02:41:00;100257.03;;;11.28;81.58
76011;BME280;64701;43.536;1.478;2022-11-10T02:43:25;100261.69;;;11.26;81.27
76011;BME280;64701;43.536;1.478;2022-11-10T02:45:50;100271.34;;;11.19;81.47
76011;BME280;64701;43.536;1.478;2022-11-10T02:48:16;100260.25;;;11.15;82.69
76011;BME280;64701;43.536;1.478;2022-11-10T02:50:41;100259.81;;;11.12;82.43
76011;BME280;64701;43.536;1.478;2022-11-10T02:53:07;100265.28;;;11.10;82.04
76011;BME280;64701;43.536;1.478;2022-11-10T02:55:32;100267.75;;;11.12;81.30
76011;BME280;64701;43.536;1.478;2022-11-10T02:57:57;100262.00;;;11.08;82.12
76011;BME280;64701;43.536;1.478;2022-11-10T03:00:23;100259.69;;;11.05;81.97
76011;BME280;64701;43.536;1.478;2022-11-10T03:02:54;100262.50;;;11.03;81.67
76011;BME280;64701;43.536;1.478;2022-11-10T03:05:19;100261.88;;;11.01;82.56
76011;BME280;64701;43.536;1.478;2022-11-10T03:07:44;100260.91;;;10.94;82.96
76011;BME280;64701;43.536;1.478;2022-11-10T03:10:09;100256.25;;;10.96;82.50
76011;BME280;64701;43.536;1.478;2022-11-10T03:12:35;100256.44;;;10.95;82.58
76011;BME280;64701;43.536;1.478;2022-11-10T03:15:00;100257.28;;;10.95;82.99
76011;BME280;64701;43.536;1.478;2022-11-10T03:17:26;100260.22;;;11.00;82.88
76011;BME280;64701;43.536;1.478;2022-11-10T03:19:52;100259.03;;;11.03;82.60
76011;BME280;64701;43.536;1.478;2022-11-10T03:22:17;100265.81;;;11.05;83.12
76011;BME280;64701;43.536;1.478;2022-11-10T03:24:43;100270.56;;;11.10;82.17
76011;BME280;64701;43.536;1.478;2022-11-10T03:27:08;100270.03;;;11.15;82.13
76011;BME280;64701;43.536;1.478;2022-11-10T03:29:33;100267.03;;;11.18;82.43
76011;BME280;64701;43.536;1.478;2022-11-10T03:31:58;100271.97;;;11.21;82.67
76011;BME280;64701;43.536;1.478;2022-11-10T03:34:24;100281.25;;;11.25;81.98
76011;BME280;64701;43.536;1.478;2022-11-10T03:36:49;100273.91;;;11.27;82.56
76011;BME280;64701;43.536;1.478;2022-11-10T03:39:14;100274.59;;;11.29;82.68
76011;BME280;64701;43.536;1.478;2022-11-10T03:41:39;100281.53;;;11.30;83.63
76011;BME280;64701;43.536;1.478;2022-11-10T03:44:05;100273.41;;;11.31;83.09
76011;BME280;64701;43.536;1.478;2022-11-10T03:46:30;100281.16;;;11.33;82.90
76011;BME280;64701;43.536;1.478;2022-11-10T03:48:55;100283.66;;;11.34;83.33
76011;BME280;64701;43.536;1.478;2022-11-10T03:51:21;100287.78;;;11.37;83.32
76011;BME280;64701;43.536;1.478;2022-11-10T03:53:46;100302.50;;;11.39;83.52
76011;BME280;64701;43.536;1.478;2022-11-10T03:56:11;100290.72;;;11.42;83.55
76011;BME280;64701;43.536;1.478;2022-11-10T03:58:37;100302.97;;;11.43;83.48
76011;BME280;64701;43.536;1.478;2022-11-10T04:01:02;100299.31;;;11.44;83.61
76011;BME280;64701;43.536;1.478;2022-11-10T04:03:27;100294.19;;;11.42;84.01
76011;BME280;64701;43.536;1.478;2022-11-10T04:05:53;100291.56;;;11.42;83.63
76011;BME280;64701;43.536;1.478;2022-11-10T04:08:36;100301.66;;;11.39;83.67
76011;BME280;64701;43.536;1.478;2022-11-10T04:11:20;100306.63;;;11.42;83.69
76011;BME280;64701;43.536;1.478;2022-11-10T04:14:04;100308.91;;;11.45;84.09
76011;BME280;64701;43.536;1.478;2022-11-10T04:16:48;100306.91;;;11.47;83.51
76011;BME280;64701;43.536;1.478;2022-11-10T04:19:13;100305.09;;;11.48;83.33
76011;BME280;64701;43.536;1.478;2022-11-10T04:21:39;100312.88;;;11.49;84.10
76011;BME280;64701;43.536;1.478;2022-11-10T04:24:04;100318.53;;;11.46;84.58
76011;BME280;64701;43.536;1.478;2022-11-10T04:26:30;100322.81;;;11.47;84.46
76011;BME280;64701;43.536;1.478;2022-11-10T04:29:00;100321.84;;;11.48;84.54
76011;BME280;64701;43.536;1.478;2022-11-10T04:31:28;100327.59;;;11.52;84.18
76011;BME280;64701;43.536;1.478;2022-11-10T04:33:53;100329.91;;;11.55;83.88
76011;BME280;64701;43.536;1.478;2022-11-10T04:36:20;100330.53;;;11.57;84.30
76011;BME280;64701;43.536;1.478;2022-11-10T04:38:45;100333.00;;;11.58;84.98
76011;BME280;64701;43.536;1.478;2022-11-10T04:41:11;100326.72;;;11.59;84.87
76011;BME280;64701;43.536;1.478;2022-11-10T04:43:36;100330.03;;;11.61;84.83
76011;BME280;64701;43.536;1.478;2022-11-10T04:46:02;100339.59;;;11.62;84.67
76011;BME280;64701;43.536;1.478;2022-11-10T04:48:28;100335.31;;;11.61;84.57
76011;BME280;64701;43.536;1.478;2022-11-10T04:50:54;100342.09;;;11.64;84.81
76011;BME280;64701;43.536;1.478;2022-11-10T04:53:19;100342.91;;;11.64;84.71
76011;BME280;64701;43.536;1.478;2022-11-10T04:55:45;100338.44;;;11.65;84.53
76011;BME280;64701;43.536;1.478;2022-11-10T04:58:11;100339.09;;;11.67;84.95
76011;BME280;64701;43.536;1.478;2022-11-10T05:00:36;100347.88;;;11.67;84.94
76011;BME280;64701;43.536;1.478;2022-11-10T05:03:04;100338.88;;;11.68;85.07
76011;BME280;64701;43.536;1.478;2022-11-10T05:05:30;100340.53;;;11.69;84.75
76011;BME280;64701;43.536;1.478;2022-11-10T05:07:55;100343.19;;;11.69;85.48
76011;BME280;64701;43.536;1.478;2022-11-10T05:10:21;100346.69;;;11.70;85.18
76011;BME280;64701;43.536;1.478;2022-11-10T05:12:46;100349.16;;;11.71;85.55
76011;BME280;64701;43.536;1.478;2022-11-10T05:15:11;100344.84;;;11.70;85.67
76011;BME280;64701;43.536;1.478;2022-11-10T05:17:37;100340.19;;;11.72;85.12
76011;BME280;64701;43.536;1.478;2022-11-10T05:20:02;100341.88;;;11.73;85.12
76011;BME280;64701;43.536;1.478;2022-11-10T05:22:28;100343.16;;;11.77;84.50
76011;BME280;64701;43.536;1.478;2022-11-10T05:24:53;100347.28;;;11.80;85.08
76011;BME280;64701;43.536;1.478;2022-11-10T05:27:18;100336.50;;;11.81;85.28
76011;BME280;64701;43.536;1.478;2022-11-10T05:29:44;100345.28;;;11.82;85.46
76011;BME280;64701;43.536;1.478;2022-11-10T05:32:09;100348.94;;;11.81;85.22
76011;BME280;64701;43.536;1.478;2022-11-10T05:34:34;100349.94;;;11.80;85.60
76011;BME280;64701;43.536;1.478;2022-11-10T05:36:59;100349.75;;;11.81;85.58
76011;BME280;64701;43.536;1.478;2022-11-10T05:39:25;100354.06;;;11.82;85.29
76011;BME280;64701;43.536;1.478;2022-11-10T05:41:50;100351.41;;;11.82;85.80
76011;BME280;64701;43.536;1.478;2022-11-10T05:44:15;100359.19;;;11.84;84.91
76011;BME280;64701;43.536;1.478;2022-11-10T05:46:41;100356.38;;;11.85;85.63
76011;BME280;64701;43.536;1.478;2022-11-10T05:49:06;100359.66;;;11.88;85.11
76011;BME280;64701;43.536;1.478;2022-11-10T05:51:32;100361.31;;;11.89;85.35
76011;BME280;64701;43.536;1.478;2022-11-10T05:53:57;100362.13;;;11.89;85.26
76011;BME280;64701;43.536;1.478;2022-11-10T05:56:22;100363.63;;;11.92;85.30
76011;BME280;64701;43.536;1.478;2022-11-10T05:58:48;100366.28;;;11.92;84.71
76011;BME280;64701;43.536;1.478;2022-11-10T06:01:13;100367.56;;;11.96;84.77
76011;BME280;64701;43.536;1.478;2022-11-10T06:03:38;100369.22;;;11.97;84.65
76011;BME280;64701;43.536;1.478;2022-11-10T06:06:04;100374.53;;;11.97;84.53
76011;BME280;64701;43.536;1.478;2022-11-10T06:08:29;100373.31;;;11.99;84.49
76011;BME280;64701;43.536;1.478;2022-11-10T06:10:54;100371.50;;;12.00;84.62
76011;BME280;64701;43.536;1.478;2022-11-10T06:13:20;100376.16;;;11.98;85.30
76011;BME280;64701;43.536;1.478;2022-11-10T06:15:45;100376.16;;;11.98;85.26
76011;BME280;64701;43.536;1.478;2022-11-10T06:18:10;100375.81;;;12.01;85.47
76011;BME280;64701;43.536;1.478;2022-11-10T06:20:35;100374.63;;;12.03;84.91
76011;BME280;64701;43.536;1.478;2022-11-10T06:23:05;100375.44;;;12.04;84.48
76011;BME280;64701;43.536;1.478;2022-11-10T06:25:32;100368.13;;;12.06;84.62
76011;BME280;64701;43.536;1.478;2022-11-10T06:27:57;100377.72;;;12.07;84.80
76011;BME280;64701;43.536;1.478;2022-11-10T06:30:23;100375.25;;;12.05;84.91
76011;BME280;64701;43.536;1.478;2022-11-10T06:32:48;100368.94;;;12.06;84.39
76011;BME280;64701;43.536;1.478;2022-11-10T06:35:14;100374.63;;;12.03;85.03
76011;BME280;64701;43.536;1.478;2022-11-10T06:37:39;100371.16;;;12.03;84.27
76011;BME280;64701;43.536;1.478;2022-11-10T06:40:05;100377.28;;;12.03;84.45
76011;BME280;64701;43.536;1.478;2022-11-10T06:42:31;100380.72;;;12.04;84.21
76011;BME280;64701;43.536;1.478;2022-11-10T06:44:57;100375.44;;;12.04;84.48
76011;BME280;64701;43.536;1.478;2022-11-10T06:47:22;100375.44;;;12.04;84.32
76011;BME280;64701;43.536;1.478;2022-11-10T06:49:47;100382.38;;;12.05;84.84
76011;BME280;64701;43.536;1.478;2022-11-10T06:52:13;100386.03;;;12.04;84.96
76011;BME280;64701;43.536;1.478;2022-11-10T06:54:38;100389.72;;;12.03;84.54
76011;BME280;64701;43.536;1.478;2022-11-10T06:57:03;100397.50;;;12.04;84.66
76011;BME280;64701;43.536;1.478;2022-11-10T06:59:28;100393.00;;;12.05;84.80
76011;BME280;64701;43.536;1.478;2022-11-10T07:01:54;100405.28;;;12.06;85.00
76011;BME280;64701;43.536;1.478;2022-11-10T07:04:19;100412.25;;;12.07;84.85
76011;BME280;64701;43.536;1.478;2022-11-10T07:06:45;100417.56;;;12.07;85.34
76011;BME280;64701;43.536;1.478;2022-11-10T07:09:10;100414.72;;;12.08;85.31
76011;BME280;64701;43.536;1.478;2022-11-10T07:11:36;100422.88;;;12.07;85.40
76011;BME280;64701;43.536;1.478;2022-11-10T07:14:01;100427.34;;;12.06;85.37
76011;BME280;64701;43.536;1.478;2022-11-10T07:16:26;100428.50;;;12.04;85.34
76011;BME280;64701;43.536;1.478;2022-11-10T07:18:52;100429.72;;;12.01;85.56
76011;BME280;64701;43.536;1.478;2022-11-10T07:21:17;100429.06;;;11.99;86.31
76011;BME280;64701;43.536;1.478;2022-11-10T07:23:43;100430.88;;;11.99;85.69
76011;BME280;64701;43.536;1.478;2022-11-10T07:26:08;100432.53;;;12.00;85.51
76011;BME280;64701;43.536;1.478;2022-11-10T07:28:33;100441.97;;;12.02;85.61
76011;BME280;64701;43.536;1.478;2022-11-10T07:31:02;100441.63;;;12.05;85.41
76011;BME280;64701;43.536;1.478;2022-11-10T07:33:27;100447.41;;;12.09;85.26
76011;BME280;64701;43.536;1.478;2022-11-10T07:35:56;100450.69;;;12.11;85.04
76011;BME280;64701;43.536;1.478;2022-11-10T07:38:22;100455.66;;;12.14;84.66
76011;BME280;64701;43.536;1.478;2022-11-10T07:40:51;100461.59;;;12.16;85.18
76011;BME280;64701;43.536;1.478;2022-11-10T07:43:17;100460.59;;;12.17;85.06
76011;BME280;64701;43.536;1.478;2022-11-10T07:45:43;100458.94;;;12.16;85.80
76011;BME280;64701;43.536;1.478;2022-11-10T07:48:08;100465.91;;;12.17;85.20
76011;BME280;64701;43.536;1.478;2022-11-10T07:50:33;100460.97;;;12.14;85.35
76011;BME280;64701;43.536;1.478;2022-11-10T07:53:12;100466.63;;;12.11;85.59
76011;BME280;64701;43.536;1.478;2022-11-10T07:55:38;100471.59;;;12.14;85.32
76011;BME280;64701;43.536;1.478;2022-11-10T07:58:04;100469.56;;;12.16;85.05
76011;BME280;64701;43.536;1.478;2022-11-10T08:00:29;100472.03;;;12.17;85.44
76011;BME280;64701;43.536;1.478;2022-11-10T08:03:00;100480.50;;;12.21;85.03
76011;BME280;64701;43.536;1.478;2022-11-10T08:05:25;100472.53;;;12.21;85.01
76011;BME280;64701;43.536;1.478;2022-11-10T08:07:51;100473.97;;;12.23;84.80
76011;BME280;64701;43.536;1.478;2022-11-10T08:10:16;100475.47;;;12.26;84.98
76011;BME280;64701;43.536;1.478;2022-11-10T08:12:42;100476.75;;;12.30;84.64
76011;BME280;64701;43.536;1.478;2022-11-10T08:15:07;100477.41;;;12.32;84.35
76011;BME280;64701;43.536;1.478;2022-11-10T08:17:33;100484.38;;;12.33;84.74
76011;BME280;64701;43.536;1.478;2022-11-10T08:19:58;100481.06;;;12.31;85.15
76011;BME280;64701;43.536;1.478;2022-11-10T08:22:23;100482.72;;;12.32;84.79
76011;BME280;64701;43.536;1.478;2022-11-10T08:24:48;100487.03;;;12.33;84.62
76011;BME280;64701;43.536;1.478;2022-11-10T08:27:14;100482.19;;;12.37;84.95
76011;BME280;64701;43.536;1.478;2022-11-10T08:29:39;100486.13;;;12.41;84.69
76011;BME280;64701;43.536;1.478;2022-11-10T08:32:04;100477.97;;;12.42;84.24
76011;BME280;64701;43.536;1.478;2022-11-10T08:34:30;100481.47;;;12.43;84.16
76011;BME280;64701;43.536;1.478;2022-11-10T08:36:55;100496.56;;;12.42;84.60
76011;BME280;64701;43.536;1.478;2022-11-10T08:39:20;100491.91;;;12.44;84.37
76011;BME280;64701;43.536;1.478;2022-11-10T08:41:46;100498.69;;;12.47;84.07
76011;BME280;64701;43.536;1.478;2022-11-10T08:44:11;100497.50;;;12.49;84.04
76011;BME280;64701;43.536;1.478;2022-11-10T08:46:37;100500.78;;;12.51;83.79
76011;BME280;64701;43.536;1.478;2022-11-10T08:49:02;100504.47;;;12.50;84.07
76011;BME280;64701;43.536;1.478;2022-11-10T08:51:28;100511.25;;;12.53;83.98
76011;BME280;64701;43.536;1.478;2022-11-10T08:53:53;100512.72;;;12.55;83.58
76011;BME280;64701;43.536;1.478;2022-11-10T08:56:18;100512.72;;;12.55;84.02
76011;BME280;64701;43.536;1.478;2022-11-10T08:58:43;100511.72;;;12.56;83.58
76011;BME280;64701;43.536;1.478;2022-11-10T09:01:09;100516.00;;;12.57;83.70
76011;BME280;64701;43.536;1.478;2022-11-10T09:03:35;100516.38;;;12.54;83.84
76011;BME280;64701;43.536;1.478;2022-11-10T09:06:01;100514.72;;;12.53;83.36
76011;BME280;64701;43.536;1.478;2022-11-10T09:08:26;100509.06;;;12.56;83.75
76011;BME280;64701;43.536;1.478;2022-11-10T09:10:51;100510.34;;;12.60;83.79
76011;BME280;64701;43.536;1.478;2022-11-10T09:13:17;100506.22;;;12.58;83.37
76011;BME280;64701;43.536;1.478;2022-11-10T09:15:43;100510.25;;;12.54;83.43
76011;BME280;64701;43.536;1.478;2022-11-10T09:18:09;100505.47;;;12.49;83.66
76011;BME280;64701;43.536;1.478;2022-11-10T09:20:35;100511.78;;;12.48;84.11
76011;BME280;64701;43.536;1.478;2022-11-10T09:23:04;100511.41;;;12.51;84.39
76011;BME280;64701;43.536;1.478;2022-11-10T09:25:30;100518.38;;;12.52;84.02
76011;BME280;64701;43.536;1.478;2022-11-10T09:27:55;100517.22;;;12.55;84.16
76011;BME280;64701;43.536;1.478;2022-11-10T09:30:20;100512.72;;;12.55;83.31
76011;BME280;64701;43.536;1.478;2022-11-10T09:32:51;100521.31;;;12.57;83.55
76011;BME280;64701;43.536;1.478;2022-11-10T09:35:16;100519.97;;;12.61;83.60
76011;BME280;64701;43.536;1.478;2022-11-10T09:37:42;100515.28;;;12.63;83.85
76011;BME280;64701;43.536;1.478;2022-11-10T09:40:09;100512.94;;;12.68;83.63
76011;BME280;64701;43.536;1.478;2022-11-10T09:42:39;100523.66;;;12.75;83.38
76011;BME280;64701;43.536;1.478;2022-11-10T09:45:06;100527.44;;;12.81;83.00
76011;BME280;64701;43.536;1.478;2022-11-10T09:47:43;100526.94;;;12.77;82.41
76011;BME280;64701;43.536;1.478;2022-11-10T09:50:14;100531.44;;;12.77;82.65
76011;BME280;64701;43.536;1.478;2022-11-10T09:52:42;100531.09;;;12.80;82.66
76011;BME280;64701;43.536;1.478;2022-11-10T09:57:40;100542.44;;;12.74;82.37
76011;BME280;64701;43.536;1.478;2022-11-10T10:00:11;100538.41;;;12.78;82.44
76011;BME280;64701;43.536;1.478;2022-11-10T10:02:38;100542.34;;;12.82;82.39
76011;BME280;64701;43.536;1.478;2022-11-10T10:10:12;100544.03;;;12.97;81.99
76011;BME280;64701;43.536;1.478;2022-11-10T10:18:21;100541.41;;;13.12;81.74
76011;BME280;64701;43.536;1.478;2022-11-10T10:20:50;100541.41;;;13.12;81.52
76011;BME280;64701;43.536;1.478;2022-11-10T10:23:26;100539.72;;;13.11;81.17
76011;BME280;64701;43.536;1.478;2022-11-10T10:25:54;100533.69;;;13.17;81.85
76011;BME280;64701;43.536;1.478;2022-11-10T10:28:27;100536.09;;;13.27;81.57
76011;BME280;64701;43.536;1.478;2022-11-10T10:31:00;100529.94;;;13.77;82.22
76011;BME280;64701;43.536;1.478;2022-11-10T10:33:31;100523.06;;;14.67;81.31
76011;BME280;64701;43.536;1.478;2022-11-10T10:36:04;100523.41;;;15.61;81.50
76011;BME280;64701;43.536;1.478;2022-11-10T10:38:32;100524.25;;;16.55;79.31
76011;BME280;64701;43.536;1.478;2022-11-10T10:41:17;100528.72;;;17.07;74.61
76011;BME280;64701;43.536;1.478;2022-11-10T10:43:45;100521.28;;;17.23;71.12
76011;BME280;64701;43.536;1.478;2022-11-10T10:46:12;100520.91;;;17.06;70.32
76011;BME280;64701;43.536;1.478;2022-11-10T10:48:39;100525.88;;;16.83;72.08
76011;BME280;64701;43.536;1.478;2022-11-10T10:51:05;100531.84;;;16.58;73.46
76011;BME280;64701;43.536;1.478;2022-11-10T10:53:30;100532.03;;;16.37;73.06
76011;BME280;64701;43.536;1.478;2022-11-10T10:56:06;100523.38;;;16.02;72.00
76011;BME280;64701;43.536;1.478;2022-11-10T10:58:53;100532.75;;;15.91;73.32
76011;BME280;64701;43.536;1.478;2022-11-10T11:01:39;100529.50;;;15.89;74.13
76011;BME280;64701;43.536;1.478;2022-11-10T11:04:05;100527.28;;;16.13;74.60
76011;BME280;64701;43.536;1.478;2022-11-10T11:06:31;100524.03;;;16.37;73.17
76011;BME280;64701;43.536;1.478;2022-11-10T11:09:17;100522.78;;;16.46;72.75
76011;BME280;64701;43.536;1.478;2022-11-10T11:11:44;100521.34;;;17.03;71.43
76011;BME280;64701;43.536;1.478;2022-11-10T11:14:28;100514.34;;;17.60;68.53
76011;BME280;64701;43.536;1.478;2022-11-10T11:17:11;100513.72;;;18.33;67.75
76011;BME280;64701;43.536;1.478;2022-11-10T11:19:37;100517.69;;;18.81;67.45
76011;BME280;64701;43.536;1.478;2022-11-10T11:22:15;100512.44;;;19.10;64.80
76011;BME280;64701;43.536;1.478;2022-11-10T11:30:08;100493.00;;;20.23;62.05
76011;BME280;64701;43.536;1.478;2022-11-10T11:35:14;100494.81;;;20.99;63.12
76011;BME280;64701;43.536;1.478;2022-11-10T11:40:33;100488.22;;;21.70;58.00
76011;BME280;64701;43.536;1.478;2022-11-10T11:51:15;100487.34;;;22.59;57.69
76011;BME280;64701;43.536;1.478;2022-11-10T11:56:23;100482.25;;;22.96;57.29
76011;BME280;64701;43.536;1.478;2022-11-10T12:12:01;100473.56;;;22.39;56.72
76011;BME280;64701;43.536;1.478;2022-11-10T12:14:41;100466.09;;;22.63;55.44
76011;BME280;64701;43.536;1.478;2022-11-10T12:17:20;100462.50;;;22.74;55.55
76011;BME280;64701;43.536;1.478;2022-11-10T12:19:57;100465.41;;;22.89;55.49
76011;BME280;64701;43.536;1.478;2022-11-10T12:22:31;100467.19;;;23.00;53.07
76011;BME280;64701;43.536;1.478;2022-11-10T12:27:46;100463.81;;;23.32;55.41
76011;BME280;64701;43.536;1.478;2022-11-10T12:30:14;100458.34;;;23.48;54.67
76011;BME280;64701;43.536;1.478;2022-11-10T12:32:44;100450.63;;;23.57;52.98
76011;BME280;64701;43.536;1.478;2022-11-10T12:35:14;100457.25;;;23.71;53.95
76011;BME280;64701;43.536;1.478;2022-11-10T12:37:43;100448.66;;;23.79;53.07
76011;BME280;64701;43.536;1.478;2022-11-10T12:42:35;100440.28;;;23.54;51.58
76011;BME280;64701;43.536;1.478;2022-11-10T12:47:34;100441.03;;;22.84;53.27
76011;BME280;64701;43.536;1.478;2022-11-10T12:50:12;100447.47;;;22.45;52.60
76011;BME280;64701;43.536;1.478;2022-11-10T12:52:48;100446.00;;;22.20;53.19
76011;BME280;64701;43.536;1.478;2022-11-10T12:55:15;100447.13;;;22.24;55.02
76011;BME280;64701;43.536;1.478;2022-11-10T12:57:41;100447.88;;;22.36;53.42
76011;BME280;64701;43.536;1.478;2022-11-10T13:00:24;100457.94;;;22.58;54.28
76011;BME280;64701;43.536;1.478;2022-11-10T13:02:50;100448.91;;;22.69;54.40
76011;BME280;64701;43.536;1.478;2022-11-10T13:10:45;100440.13;;;22.40;53.74
76011;BME280;64701;43.536;1.478;2022-11-10T13:13:12;100443.03;;;22.05;54.74
76011;BME280;64701;43.536;1.478;2022-11-10T13:18:07;100454.22;;;21.40;55.25
76011;BME280;64701;43.536;1.478;2022-11-10T13:23:21;100456.03;;;21.23;56.14
76011;BME280;64701;43.536;1.478;2022-11-10T13:25:51;100447.69;;;21.36;55.76
76011;BME280;64701;43.536;1.478;2022-11-10T13:28:54;100446.41;;;21.67;56.50
76011;BME280;64701;43.536;1.478;2022-11-10T13:31:48;100443.63;;;22.07;55.93
76011;BME280;64701;43.536;1.478;2022-11-10T13:36:41;100436.78;;;22.71;51.67
76011;BME280;64701;43.536;1.478;2022-11-10T13:44:26;100435.59;;;24.25;49.91
76011;BME280;64701;43.536;1.478;2022-11-10T13:52:11;100426.16;;;27.63;41.03
76011;BME280;64701;43.536;1.478;2022-11-10T13:59:45;100436.53;;;24.14;48.82
76011;BME280;64701;43.536;1.478;2022-11-10T14:04:56;100435.53;;;23.17;52.10
76011;BME280;64701;43.536;1.478;2022-11-10T14:07:21;100433.00;;;22.89;49.04
76011;BME280;64701;43.536;1.478;2022-11-10T14:09:50;100442.19;;;22.71;53.38
76011;BME280;64701;43.536;1.478;2022-11-10T14:14:52;100437.66;;;22.38;52.82
76011;BME280;64701;43.536;1.478;2022-11-10T14:17:20;100443.97;;;22.27;53.32
76011;BME280;64701;43.536;1.478;2022-11-10T14:19:47;100454.19;;;22.25;54.46
76011;BME280;64701;43.536;1.478;2022-11-10T14:27:28;100455.06;;;22.14;53.46